sensor_id;sensor_type;location;lat;lon;timestamp;pressure;altitude;pressure_sealevel;temperature
78369;BMP280;71113;43.092;-89.268;2024-03-02T00:00:10;98126.34;;;17.37
78369;BMP280;71113;43.092;-89.268;2024-03-02T00:02:42;98130.09;;;17.36
78369;BMP280;71113;43.092;-89.268;2024-03-02T00:05:13;98120.94;;;17.33
78369;BMP280;71113;43.092;-89.268;2024-03-02T00:07:45;98128.84;;;17.33
78369;BMP280;71113;43.092;-89.268;2024-03-02T00:10:16;98131.78;;;17.31
78369;BMP280;71113;43.092;-89.268;2024-03-02T00:12:42;98133.66;;;17.31
78369;BMP280;71113;43.092;-89.268;2024-03-02T00:17:55;98141.88;;;17.29
78369;BMP280;71113;43.092;-89.268;2024-03-02T00:20:22;98146.94;;;17.26
78369;BMP280;71113;43.092;-89.268;2024-03-02T00:22:51;98135.66;;;17.25
78369;BMP280;71113;43.092;-89.268;2024-03-02T00:25:18;98144.31;;;17.26
78369;BMP280;71113;43.092;-89.268;2024-03-02T00:27:47;98144.66;;;17.24
78369;BMP280;71113;43.092;-89.268;2024-03-02T00:30:54;98155.19;;;17.24
78369;BMP280;71113;43.092;-89.268;2024-03-02T00:33:21;98172.09;;;17.23
78369;BMP280;71113;43.092;-89.268;2024-03-02T00:35:48;98184.19;;;17.24
78369;BMP280;71113;43.092;-89.268;2024-03-02T00:38:15;98174.75;;;17.23
78369;BMP280;71113;43.092;-89.268;2024-03-02T00:40:42;98173.16;;;17.22
78369;BMP280;71113;43.092;-89.268;2024-03-02T00:46:05;98181.41;;;17.21
78369;BMP280;71113;43.092;-89.268;2024-03-02T00:48:32;98186.69;;;17.21
78369;BMP280;71113;43.092;-89.268;2024-03-02T00:51:02;98193.19;;;17.23
78369;BMP280;71113;43.092;-89.268;2024-03-02T00:53:31;98184.03;;;17.29
78369;BMP280;71113;43.092;-89.268;2024-03-02T00:55:59;98179.88;;;17.37
78369;BMP280;71113;43.092;-89.268;2024-03-02T00:58:28;98190.75;;;17.44
78369;BMP280;71113;43.092;-89.268;2024-03-02T01:00:54;98182.38;;;17.51
78369;BMP280;71113;43.092;-89.268;2024-03-02T01:03:20;98185.03;;;17.59
78369;BMP280;71113;43.092;-89.268;2024-03-02T01:05:46;98184.25;;;17.68
78369;BMP280;71113;43.092;-89.268;2024-03-02T01:08:12;98176.66;;;17.75
78369;BMP280;71113;43.092;-89.268;2024-03-02T01:10:37;98177.25;;;17.80
78369;BMP280;71113;43.092;-89.268;2024-03-02T01:13:04;98177.88;;;17.86
78369;BMP280;71113;43.092;-89.268;2024-03-02T01:15:30;98177.13;;;17.94
78369;BMP280;71113;43.092;-89.268;2024-03-02T01:17:56;98175.69;;;17.96
78369;BMP280;71113;43.092;-89.268;2024-03-02T01:20:22;98175.69;;;17.96
78369;BMP280;71113;43.092;-89.268;2024-03-02T01:22:48;98171.06;;;17.93
78369;BMP280;71113;43.092;-89.268;2024-03-02T01:25:14;98167.03;;;17.87
78369;BMP280;71113;43.092;-89.268;2024-03-02T01:27:40;98172.00;;;17.89
78369;BMP280;71113;43.092;-89.268;2024-03-02T01:30:06;98172.00;;;17.89
78369;BMP280;71113;43.092;-89.268;2024-03-02T01:32:32;98168.84;;;17.95
78369;BMP280;71113;43.092;-89.268;2024-03-02T01:34:58;98176.78;;;18.04
78369;BMP280;71113;43.092;-89.268;2024-03-02T01:37:24;98179.56;;;18.08
78369;BMP280;71113;43.092;-89.268;2024-03-02T01:39:50;98178.78;;;18.07
78369;BMP280;71113;43.092;-89.268;2024-03-02T01:42:16;98172.75;;;18.07
78369;BMP280;71113;43.092;-89.268;2024-03-02T01:44:42;98178.50;;;18.09
78369;BMP280;71113;43.092;-89.268;2024-03-02T01:47:08;98184.22;;;18.11
78369;BMP280;71113;43.092;-89.268;2024-03-02T01:49:34;98179.44;;;18.13
78369;BMP280;71113;43.092;-89.268;2024-03-02T01:52:00;98182.84;;;18.13
78369;BMP280;71113;43.092;-89.268;2024-03-02T01:54:26;98176.44;;;18.14
78369;BMP280;71113;43.092;-89.268;2024-03-02T01:56:52;98176.13;;;18.16
78369;BMP280;71113;43.092;-89.268;2024-03-02T01:59:38;98171.34;;;18.18
78369;BMP280;71113;43.092;-89.268;2024-03-02T02:02:05;98176.63;;;18.18
78369;BMP280;71113;43.092;-89.268;2024-03-02T02:04:30;98165.44;;;18.21
78369;BMP280;71113;43.092;-89.268;2024-03-02T02:06:57;98165.88;;;18.23
78369;BMP280;71113;43.092;-89.268;2024-03-02T02:09:23;98156.88;;;18.24
78369;BMP280;71113;43.092;-89.268;2024-03-02T02:11:50;98153.59;;;18.27
78369;BMP280;71113;43.092;-89.268;2024-03-02T02:14:17;98152.97;;;18.30
78369;BMP280;71113;43.092;-89.268;2024-03-02T02:16:43;98151.88;;;18.31
78369;BMP280;71113;43.092;-89.268;2024-03-02T02:19:09;98151.88;;;18.31
78369;BMP280;71113;43.092;-89.268;2024-03-02T02:21:35;98145.97;;;18.34
78369;BMP280;71113;43.092;-89.268;2024-03-02T02:24:01;98148.00;;;18.37
78369;BMP280;71113;43.092;-89.268;2024-03-02T02:26:29;98147.34;;;18.40
78369;BMP280;71113;43.092;-89.268;2024-03-02T02:28:55;98156.47;;;18.43
78369;BMP280;71113;43.092;-89.268;2024-03-02T02:31:21;98142.66;;;18.46
78369;BMP280;71113;43.092;-89.268;2024-03-02T02:33:47;98140.16;;;18.49
78369;BMP280;71113;43.092;-89.268;2024-03-02T02:36:13;98149.00;;;18.53
78369;BMP280;71113;43.092;-89.268;2024-03-02T02:38:43;98150.41;;;18.60
78369;BMP280;71113;43.092;-89.268;2024-03-02T02:41:10;98151.13;;;18.69
78369;BMP280;71113;43.092;-89.268;2024-03-02T02:43:36;98156.06;;;18.79
78369;BMP280;71113;43.092;-89.268;2024-03-02T02:46:02;98162.84;;;18.88
78369;BMP280;71113;43.092;-89.268;2024-03-02T02:48:29;98172.31;;;18.98
78369;BMP280;71113;43.092;-89.268;2024-03-02T02:50:55;98182.03;;;19.06
78369;BMP280;71113;43.092;-89.268;2024-03-02T02:53:21;98189.63;;;19.16
78369;BMP280;71113;43.092;-89.268;2024-03-02T02:55:47;98189.22;;;19.27
78369;BMP280;71113;43.092;-89.268;2024-03-02T02:58:13;98198.66;;;19.36
78369;BMP280;71113;43.092;-89.268;2024-03-02T03:00:40;98203.88;;;19.45
78369;BMP280;71113;43.092;-89.268;2024-03-02T03:03:06;98207.59;;;19.53
78369;BMP280;71113;43.092;-89.268;2024-03-02T03:05:32;98220.16;;;19.56
78369;BMP280;71113;43.092;-89.268;2024-03-02T03:07:58;98221.38;;;19.58
78369;BMP280;71113;43.092;-89.268;2024-03-02T03:10:24;98218.84;;;19.62
78369;BMP280;71113;43.092;-89.268;2024-03-02T03:12:52;98216.03;;;19.67
78369;BMP280;71113;43.092;-89.268;2024-03-02T03:15:18;98217.69;;;19.71
78369;BMP280;71113;43.092;-89.268;2024-03-02T03:17:44;98219.38;;;19.76
78369;BMP280;71113;43.092;-89.268;2024-03-02T03:20:12;98229.63;;;19.77
78369;BMP280;71113;43.092;-89.268;2024-03-02T03:22:39;98215.25;;;19.87
78369;BMP280;71113;43.092;-89.268;2024-03-02T03:25:06;98215.47;;;19.82
78369;BMP280;71113;43.092;-89.268;2024-03-02T03:27:33;98223.56;;;19.77
78369;BMP280;71113;43.092;-89.268;2024-03-02T03:29:59;98215.50;;;19.73
78369;BMP280;71113;43.092;-89.268;2024-03-02T03:32:25;98218.78;;;19.70
78369;BMP280;71113;43.092;-89.268;2024-03-02T03:34:51;98211.97;;;19.69
78369;BMP280;71113;43.092;-89.268;2024-03-02T03:37:17;98214.16;;;19.67
78369;BMP280;71113;43.092;-89.268;2024-03-02T03:39:43;98216.34;;;19.65
78369;BMP280;71113;43.092;-89.268;2024-03-02T03:42:09;98224.13;;;19.62
78369;BMP280;71113;43.092;-89.268;2024-03-02T03:44:35;98219.06;;;19.57
78369;BMP280;71113;43.092;-89.268;2024-03-02T03:47:01;98233.41;;;19.56
78369;BMP280;71113;43.092;-89.268;2024-03-02T03:49:28;98229.19;;;19.55
78369;BMP280;71113;43.092;-89.268;2024-03-02T03:51:54;98234.38;;;19.51
78369;BMP280;71113;43.092;-89.268;2024-03-02T03:54:20;98232.38;;;19.48
78369;BMP280;71113;43.092;-89.268;2024-03-02T03:56:46;98229.25;;;19.46
78369;BMP280;71113;43.092;-89.268;2024-03-02T03:59:12;98234.09;;;19.44
78369;BMP280;71113;43.092;-89.268;2024-03-02T04:01:38;98228.66;;;19.40
78369;BMP280;71113;43.092;-89.268;2024-03-02T04:04:04;98219.50;;;19.38
78369;BMP280;71113;43.092;-89.268;2024-03-02T04:06:30;98212.94;;;19.35
78369;BMP280;71113;43.092;-89.268;2024-03-02T04:08:56;98219.69;;;19.33
78369;BMP280;71113;43.092;-89.268;2024-03-02T04:11:22;98218.78;;;19.29
78369;BMP280;71113;43.092;-89.268;2024-03-02T04:13:48;98209.59;;;19.26
78369;BMP280;71113;43.092;-89.268;2024-03-02T04:16:14;98221.59;;;19.24
78369;BMP280;71113;43.092;-89.268;2024-03-02T04:18:40;98218.50;;;19.22
78369;BMP280;71113;43.092;-89.268;2024-03-02T04:21:07;98213.06;;;19.18
78369;BMP280;71113;43.092;-89.268;2024-03-02T04:23:33;98214.50;;;19.15
78369;BMP280;71113;43.092;-89.268;2024-03-02T04:25:59;98216.69;;;19.13
78369;BMP280;71113;43.092;-89.268;2024-03-02T04:28:25;98216.22;;;19.11
78369;BMP280;71113;43.092;-89.268;2024-03-02T04:30:51;98219.06;;;19.06
78369;BMP280;71113;43.092;-89.268;2024-03-02T04:33:17;98216.28;;;19.03
78369;BMP280;71113;43.092;-89.268;2024-03-02T04:35:43;98220.03;;;19.02
78369;BMP280;71113;43.092;-89.268;2024-03-02T04:38:09;98221.88;;;19.01
78369;BMP280;71113;43.092;-89.268;2024-03-02T04:40:35;98225.78;;;18.95
78369;BMP280;71113;43.092;-89.268;2024-03-02T04:43:01;98221.28;;;18.96
78369;BMP280;71113;43.092;-89.268;2024-03-02T04:45:27;98224.56;;;18.93
78369;BMP280;71113;43.092;-89.268;2024-03-02T04:47:53;98224.88;;;18.91
78369;BMP280;71113;43.092;-89.268;2024-03-02T04:50:19;98221.00;;;18.88
78369;BMP280;71113;43.092;-89.268;2024-03-02T04:52:45;98219.78;;;18.86
78369;BMP280;71113;43.092;-89.268;2024-03-02T04:55:11;98224.59;;;18.84
78369;BMP280;71113;43.092;-89.268;2024-03-02T04:57:55;98215.44;;;18.81
78369;BMP280;71113;43.092;-89.268;2024-03-02T05:00:21;98210.00;;;18.78
78369;BMP280;71113;43.092;-89.268;2024-03-02T05:02:47;98218.56;;;18.75
78369;BMP280;71113;43.092;-89.268;2024-03-02T05:05:13;98224.97;;;18.74
78369;BMP280;71113;43.092;-89.268;2024-03-02T05:07:42;98216.53;;;18.72
78369;BMP280;71113;43.092;-89.268;2024-03-02T05:10:09;98218.72;;;18.70
78369;BMP280;71113;43.092;-89.268;2024-03-02T05:12:35;98214.09;;;18.67
78369;BMP280;71113;43.092;-89.268;2024-03-02T05:15:14;98213.16;;;18.63
78369;BMP280;71113;43.092;-89.268;2024-03-02T05:17:40;98221.41;;;18.61
78369;BMP280;71113;43.092;-89.268;2024-03-02T05:20:09;98226.53;;;18.57
78369;BMP280;71113;43.092;-89.268;2024-03-02T05:22:35;98218.16;;;18.55
78369;BMP280;71113;43.092;-89.268;2024-03-02T05:25:02;98225.31;;;18.55
78369;BMP280;71113;43.092;-89.268;2024-03-02T05:27:29;98231.97;;;18.52
78369;BMP280;71113;43.092;-89.268;2024-03-02T05:29:55;98240.84;;;18.48
78369;BMP280;71113;43.092;-89.268;2024-03-02T05:32:21;98244.63;;;18.47
78369;BMP280;71113;43.092;-89.268;2024-03-02T05:34:47;98245.41;;;18.47
78369;BMP280;71113;43.092;-89.268;2024-03-02T05:37:13;98251.75;;;18.46
78369;BMP280;71113;43.092;-89.268;2024-03-02T05:39:39;98248.63;;;18.44
78369;BMP280;71113;43.092;-89.268;2024-03-02T05:42:05;98249.25;;;18.41
78369;BMP280;71113;43.092;-89.268;2024-03-02T05:44:31;98251.44;;;18.39
78369;BMP280;71113;43.092;-89.268;2024-03-02T05:46:57;98259.69;;;18.38
78369;BMP280;71113;43.092;-89.268;2024-03-02T05:49:23;98255.00;;;18.35
78369;BMP280;71113;43.092;-89.268;2024-03-02T05:51:49;98259.84;;;18.33
78369;BMP280;71113;43.092;-89.268;2024-03-02T05:54:15;98265.72;;;18.30
78369;BMP280;71113;43.092;-89.268;2024-03-02T05:56:41;98269.78;;;18.27
78369;BMP280;71113;43.092;-89.268;2024-03-02T05:59:06;98261.84;;;18.27
78369;BMP280;71113;43.092;-89.268;2024-03-02T06:01:46;98271.19;;;18.24
78369;BMP280;71113;43.092;-89.268;2024-03-02T06:04:13;98269.16;;;18.21
78369;BMP280;71113;43.092;-89.268;2024-03-02T06:06:42;98272.91;;;18.20
78369;BMP280;71113;43.092;-89.268;2024-03-02T06:09:09;98264.19;;;18.20
78369;BMP280;71113;43.092;-89.268;2024-03-02T06:11:38;98264.84;;;18.17
78369;BMP280;71113;43.092;-89.268;2024-03-02T06:14:05;98260.31;;;18.17
78369;BMP280;71113;43.092;-89.268;2024-03-02T06:16:32;98265.59;;;18.17
78369;BMP280;71113;43.092;-89.268;2024-03-02T06:18:58;98263.56;;;18.14
78369;BMP280;71113;43.092;-89.268;2024-03-02T06:21:25;98264.69;;;18.13
78369;BMP280;71113;43.092;-89.268;2024-03-02T06:23:51;98254.41;;;18.12
78369;BMP280;71113;43.092;-89.268;2024-03-02T06:26:17;98255.06;;;18.09
78369;BMP280;71113;43.092;-89.268;2024-03-02T06:28:44;98256.13;;;18.08
78369;BMP280;71113;43.092;-89.268;2024-03-02T06:31:10;98253.66;;;18.03
78369;BMP280;71113;43.092;-89.268;2024-03-02T06:33:36;98251.47;;;18.05
78369;BMP280;71113;43.092;-89.268;2024-03-02T06:36:02;98249.13;;;18.03
78369;BMP280;71113;43.092;-89.268;2024-03-02T06:38:28;98253.34;;;18.04
78369;BMP280;71113;43.092;-89.268;2024-03-02T06:40:54;98252.88;;;18.02
78369;BMP280;71113;43.092;-89.268;2024-03-02T06:43:23;98250.53;;;18.01
78369;BMP280;71113;43.092;-89.268;2024-03-02T06:45:52;98262.50;;;17.98
78369;BMP280;71113;43.092;-89.268;2024-03-02T06:48:18;98262.00;;;17.96
78369;BMP280;71113;43.092;-89.268;2024-03-02T06:50:47;98259.72;;;17.94
78369;BMP280;71113;43.092;-89.268;2024-03-02T06:53:13;98252.38;;;17.91
78369;BMP280;71113;43.092;-89.268;2024-03-02T06:55:43;98256.88;;;17.91
78369;BMP280;71113;43.092;-89.268;2024-03-02T06:58:11;98256.13;;;17.90
78369;BMP280;71113;43.092;-89.268;2024-03-02T07:00:37;98242.00;;;17.86
78369;BMP280;71113;43.092;-89.268;2024-03-02T07:03:04;98244.63;;;17.86
78369;BMP280;71113;43.092;-89.268;2024-03-02T07:05:30;98241.53;;;17.84
78369;BMP280;71113;43.092;-89.268;2024-03-02T07:07:56;98238.41;;;17.82
78369;BMP280;71113;43.092;-89.268;2024-03-02T07:10:21;98240.28;;;17.82
78369;BMP280;71113;43.092;-89.268;2024-03-02T07:12:48;98236.88;;;17.81
78369;BMP280;71113;43.092;-89.268;2024-03-02T07:15:14;98239.03;;;17.79
78369;BMP280;71113;43.092;-89.268;2024-03-02T07:17:52;98237.00;;;17.76
78369;BMP280;71113;43.092;-89.268;2024-03-02T07:20:18;98244.91;;;17.76
78369;BMP280;71113;43.092;-89.268;2024-03-02T07:22:44;98239.97;;;17.75
78369;BMP280;71113;43.092;-89.268;2024-03-02T07:25:09;98241.84;;;17.74
78369;BMP280;71113;43.092;-89.268;2024-03-02T07:27:35;98237.16;;;17.71
78369;BMP280;71113;43.092;-89.268;2024-03-02T07:30:02;98236.69;;;17.69
78369;BMP280;71113;43.092;-89.268;2024-03-02T07:32:29;98234.22;;;17.64
78369;BMP280;71113;43.092;-89.268;2024-03-02T07:34:55;98234.06;;;17.69
78369;BMP280;71113;43.092;-89.268;2024-03-02T07:37:22;98237.00;;;17.68
78369;BMP280;71113;43.092;-89.268;2024-03-02T07:39:48;98229.41;;;17.66
78369;BMP280;71113;43.092;-89.268;2024-03-02T07:42:14;98228.16;;;17.63
78369;BMP280;71113;43.092;-89.268;2024-03-02T07:44:41;98227.66;;;17.61
78369;BMP280;71113;43.092;-89.268;2024-03-02T07:47:07;98217.13;;;17.61
78369;BMP280;71113;43.092;-89.268;2024-03-02T07:49:33;98222.72;;;17.60
78369;BMP280;71113;43.092;-89.268;2024-03-02T07:52:00;98212.78;;;17.57
78369;BMP280;71113;43.092;-89.268;2024-03-02T07:54:25;98215.41;;;17.57
78369;BMP280;71113;43.092;-89.268;2024-03-02T07:56:51;98207.06;;;17.55
78369;BMP280;71113;43.092;-89.268;2024-03-02T07:59:17;98213.13;;;17.55
78369;BMP280;71113;43.092;-89.268;2024-03-02T08:01:43;98214.47;;;17.53
78369;BMP280;71113;43.092;-89.268;2024-03-02T08:04:09;98212.16;;;17.51
78369;BMP280;71113;43.092;-89.268;2024-03-02T08:06:35;98213.53;;;17.49
78369;BMP280;71113;43.092;-89.268;2024-03-02T08:09:01;98216.50;;;17.47
78369;BMP280;71113;43.092;-89.268;2024-03-02T08:11:27;98219.13;;;17.47
78369;BMP280;71113;43.092;-89.268;2024-03-02T08:13:54;98226.28;;;17.47
78369;BMP280;71113;43.092;-89.268;2024-03-02T08:16:22;98225.03;;;17.44
78369;BMP280;71113;43.092;-89.268;2024-03-02T08:18:49;98225.34;;;17.43
78369;BMP280;71113;43.092;-89.268;2024-03-02T08:21:15;98221.91;;;17.42
78369;BMP280;71113;43.092;-89.268;2024-03-02T08:23:42;98232.78;;;17.41
78369;BMP280;71113;43.092;-89.268;2024-03-02T08:26:09;98220.69;;;17.40
78369;BMP280;71113;43.092;-89.268;2024-03-02T08:28:35;98232.59;;;17.37
78369;BMP280;71113;43.092;-89.268;2024-03-02T08:31:03;98222.50;;;17.30
78369;BMP280;71113;43.092;-89.268;2024-03-02T08:33:29;98227.94;;;17.34
78369;BMP280;71113;43.092;-89.268;2024-03-02T08:35:56;98223.44;;;17.34
78369;BMP280;71113;43.092;-89.268;2024-03-02T08:38:22;98230.56;;;17.34
78369;BMP280;71113;43.092;-89.268;2024-03-02T08:40:49;98228.25;;;17.32
78369;BMP280;71113;43.092;-89.268;2024-03-02T08:43:15;98229.31;;;17.31
78369;BMP280;71113;43.092;-89.268;2024-03-02T08:45:41;98227.00;;;17.30
78369;BMP280;71113;43.092;-89.268;2024-03-02T08:48:08;98226.22;;;17.29
78369;BMP280;71113;43.092;-89.268;2024-03-02T08:50:34;98229.94;;;17.28
78369;BMP280;71113;43.092;-89.268;2024-03-02T08:53:00;98224.19;;;17.26
78369;BMP280;71113;43.092;-89.268;2024-03-02T08:55:26;98222.31;;;17.27
78369;BMP280;71113;43.092;-89.268;2024-03-02T08:57:53;98228.69;;;17.26
78369;BMP280;71113;43.092;-89.268;2024-03-02T09:00:19;98220.31;;;17.24
78369;BMP280;71113;43.092;-89.268;2024-03-02T09:02:45;98225.88;;;17.22
78369;BMP280;71113;43.092;-89.268;2024-03-02T09:05:12;98231.16;;;17.22
78369;BMP280;71113;43.092;-89.268;2024-03-02T09:07:38;98231.50;;;17.21
78369;BMP280;71113;43.092;-89.268;2024-03-02T09:10:07;98233.34;;;17.20
78369;BMP280;71113;43.092;-89.268;2024-03-02T09:12:34;98239.19;;;17.17
78369;BMP280;71113;43.092;-89.268;2024-03-02T09:15:01;98248.97;;;17.17
78369;BMP280;71113;43.092;-89.268;2024-03-02T09:17:28;98256.41;;;17.15
78369;BMP280;71113;43.092;-89.268;2024-03-02T09:19:55;98253.00;;;17.14
78369;BMP280;71113;43.092;-89.268;2024-03-02T09:22:21;98254.84;;;17.14
78369;BMP280;71113;43.092;-89.268;2024-03-02T09:24:48;98258.56;;;17.13
78369;BMP280;71113;43.092;-89.268;2024-03-02T09:27:14;98250.94;;;17.11
78369;BMP280;71113;43.092;-89.268;2024-03-02T09:29:40;98243.69;;;17.08
78369;BMP280;71113;43.092;-89.268;2024-03-02T09:32:08;98238.41;;;17.08
78369;BMP280;71113;43.092;-89.268;2024-03-02T09:34:34;98241.03;;;17.08
78369;BMP280;71113;43.092;-89.268;2024-03-02T09:37:00;98241.03;;;17.08
78369;BMP280;71113;43.092;-89.268;2024-03-02T09:39:25;98244.72;;;17.07
78369;BMP280;71113;43.092;-89.268;2024-03-02T09:41:51;98246.16;;;17.04
78369;BMP280;71113;43.092;-89.268;2024-03-02T09:44:18;98240.38;;;17.02
78369;BMP280;71113;43.092;-89.268;2024-03-02T09:46:48;98243.78;;;17.03
78369;BMP280;71113;43.092;-89.268;2024-03-02T09:49:14;98232.47;;;17.02
78369;BMP280;71113;43.092;-89.268;2024-03-02T09:51:40;98227.81;;;16.99
78369;BMP280;71113;43.092;-89.268;2024-03-02T09:54:10;98221.78;;;16.99
78369;BMP280;71113;43.092;-89.268;2024-03-02T09:56:36;98221.78;;;16.99
78369;BMP280;71113;43.092;-89.268;2024-03-02T09:59:02;98221.31;;;16.97
78369;BMP280;71113;43.092;-89.268;2024-03-02T10:01:28;98221.31;;;16.97
78369;BMP280;71113;43.092;-89.268;2024-03-02T10:03:54;98226.09;;;16.95
78369;BMP280;71113;43.092;-89.268;2024-03-02T10:06:26;98234.75;;;16.95
78369;BMP280;71113;43.092;-89.268;2024-03-02T10:08:53;98240.38;;;16.94
78369;BMP280;71113;43.092;-89.268;2024-03-02T10:11:33;98231.19;;;16.91
78369;BMP280;71113;43.092;-89.268;2024-03-02T10:14:06;98225.91;;;16.91
78369;BMP280;71113;43.092;-89.268;2024-03-02T10:16:37;98225.91;;;16.91
78369;BMP280;71113;43.092;-89.268;2024-03-02T10:19:20;98226.53;;;16.88
78369;BMP280;71113;43.092;-89.268;2024-03-02T10:21:47;98225.75;;;16.88
78369;BMP280;71113;43.092;-89.268;2024-03-02T10:24:15;98217.84;;;16.88
78369;BMP280;71113;43.092;-89.268;2024-03-02T10:26:41;98223.72;;;16.85
78369;BMP280;71113;43.092;-89.268;2024-03-02T10:29:09;98215.81;;;16.85
78369;BMP280;71113;43.092;-89.268;2024-03-02T10:31:39;98214.84;;;16.81
78369;BMP280;71113;43.092;-89.268;2024-03-02T10:34:06;98210.09;;;16.83
78369;BMP280;71113;43.092;-89.268;2024-03-02T10:36:34;98215.34;;;16.83
78369;BMP280;71113;43.092;-89.268;2024-03-02T10:39:07;98210.38;;;16.81
78369;BMP280;71113;43.092;-89.268;2024-03-02T10:41:35;98203.53;;;16.80
78369;BMP280;71113;43.092;-89.268;2024-03-02T10:44:06;98202.78;;;16.80
78369;BMP280;71113;43.092;-89.268;2024-03-02T10:46:34;98208.06;;;16.80
78369;BMP280;71113;43.092;-89.268;2024-03-02T10:49:01;98214.41;;;16.79
78369;BMP280;71113;43.092;-89.268;2024-03-02T10:51:30;98207.59;;;16.78
78369;BMP280;71113;43.092;-89.268;2024-03-02T10:54:01;98205.72;;;16.78
78369;BMP280;71113;43.092;-89.268;2024-03-02T10:56:41;98208.19;;;16.74
78369;BMP280;71113;43.092;-89.268;2024-03-02T10:59:35;98213.47;;;16.74
78369;BMP280;71113;43.092;-89.268;2024-03-02T11:02:03;98217.19;;;16.73
78369;BMP280;71113;43.092;-89.268;2024-03-02T11:04:30;98219.81;;;16.73
78369;BMP280;71113;43.092;-89.268;2024-03-02T11:07:17;98221.94;;;16.71
78369;BMP280;71113;43.092;-89.268;2024-03-02T11:10:00;98215.44;;;16.69
78369;BMP280;71113;43.092;-89.268;2024-03-02T11:12:53;98210.47;;;16.67
78369;BMP280;71113;43.092;-89.268;2024-03-02T11:15:20;98205.50;;;16.66
78369;BMP280;71113;43.092;-89.268;2024-03-02T11:17:52;98212.59;;;16.65
78369;BMP280;71113;43.092;-89.268;2024-03-02T11:20:18;98204.69;;;16.65
78369;BMP280;71113;43.092;-89.268;2024-03-02T11:22:45;98193.72;;;16.63
78369;BMP280;71113;43.092;-89.268;2024-03-02T11:25:25;98195.84;;;16.61
78369;BMP280;71113;43.092;-89.268;2024-03-02T11:28:02;98205.34;;;16.62
78369;BMP280;71113;43.092;-89.268;2024-03-02T11:33:07;98207.81;;;16.59
78369;BMP280;71113;43.092;-89.268;2024-03-02T11:35:36;98199.56;;;16.60
78369;BMP280;71113;43.092;-89.268;2024-03-02T11:38:06;98212.94;;;16.64
78369;BMP280;71113;43.092;-89.268;2024-03-02T11:40:32;98202.59;;;16.76
78369;BMP280;71113;43.092;-89.268;2024-03-02T11:43:02;98207.91;;;16.85
78369;BMP280;71113;43.092;-89.268;2024-03-02T11:45:28;98206.56;;;16.96
78369;BMP280;71113;43.092;-89.268;2024-03-02T11:47:57;98208.75;;;17.02
78369;BMP280;71113;43.092;-89.268;2024-03-02T11:50:36;98214.03;;;17.11
78369;BMP280;71113;43.092;-89.268;2024-03-02T11:53:06;98214.41;;;17.18
78369;BMP280;71113;43.092;-89.268;2024-03-02T11:55:37;98197.66;;;17.23
78369;BMP280;71113;43.092;-89.268;2024-03-02T11:58:06;98198.59;;;17.18
78369;BMP280;71113;43.092;-89.268;2024-03-02T12:00:32;98209.88;;;17.10
78369;BMP280;71113;43.092;-89.268;2024-03-02T12:05:30;98205.53;;;17.06
78369;BMP280;71113;43.092;-89.268;2024-03-02T12:08:00;98219.31;;;17.02
78369;BMP280;71113;43.092;-89.268;2024-03-02T12:10:27;98223.63;;;16.98
78369;BMP280;71113;43.092;-89.268;2024-03-02T12:13:03;98221.16;;;17.02
78369;BMP280;71113;43.092;-89.268;2024-03-02T12:15:31;98231.56;;;17.07
78369;BMP280;71113;43.092;-89.268;2024-03-02T12:17:58;98232.56;;;17.20
78369;BMP280;71113;43.092;-89.268;2024-03-02T12:20:26;98247.31;;;17.29
78369;BMP280;71113;43.092;-89.268;2024-03-02T12:22:54;98243.75;;;17.25
78369;BMP280;71113;43.092;-89.268;2024-03-02T12:25:21;98243.56;;;17.22
78369;BMP280;71113;43.092;-89.268;2024-03-02T12:27:50;98240.28;;;17.16
78369;BMP280;71113;43.092;-89.268;2024-03-02T12:30:17;98238.44;;;17.17
78369;BMP280;71113;43.092;-89.268;2024-03-02T12:32:44;98226.94;;;17.13
78369;BMP280;71113;43.092;-89.268;2024-03-02T12:35:12;98234.38;;;17.11
78369;BMP280;71113;43.092;-89.268;2024-03-02T12:37:43;98232.84;;;17.10
78369;BMP280;71113;43.092;-89.268;2024-03-02T12:40:10;98223.06;;;17.10
78369;BMP280;71113;43.092;-89.268;2024-03-02T12:42:37;98227.56;;;17.10
78369;BMP280;71113;43.092;-89.268;2024-03-02T12:45:03;98236.56;;;17.09
78369;BMP280;71113;43.092;-89.268;2024-03-02T12:47:29;98241.03;;;17.08
78369;BMP280;71113;43.092;-89.268;2024-03-02T12:49:56;98232.63;;;17.06
78369;BMP280;71113;43.092;-89.268;2024-03-02T12:52:22;98232.63;;;17.06
78369;BMP280;71113;43.092;-89.268;2024-03-02T12:54:49;98243.38;;;17.10
78369;BMP280;71113;43.092;-89.268;2024-03-02T12:57:19;98234.06;;;17.12
78369;BMP280;71113;43.092;-89.268;2024-03-02T12:59:48;98242.78;;;17.21
78369;BMP280;71113;43.092;-89.268;2024-03-02T13:02:17;98241.59;;;17.36
78369;BMP280;71113;43.092;-89.268;2024-03-02T13:04:44;98246.91;;;17.45
78369;BMP280;71113;43.092;-89.268;2024-03-02T13:07:10;98244.75;;;17.55
78369;BMP280;71113;43.092;-89.268;2024-03-02T13:09:39;98252.06;;;17.67
78369;BMP280;71113;43.092;-89.268;2024-03-02T13:12:06;98250.81;;;17.73
78369;BMP280;71113;43.092;-89.268;2024-03-02T13:14:35;98257.97;;;17.81
78369;BMP280;71113;43.092;-89.268;2024-03-02T13:17:01;98262.00;;;17.87
78369;BMP280;71113;43.092;-89.268;2024-03-02T13:19:30;98258.94;;;17.94
78369;BMP280;71113;43.092;-89.268;2024-03-02T13:21:57;98241.81;;;17.91
78369;BMP280;71113;43.092;-89.268;2024-03-02T13:24:24;98255.66;;;17.88
78369;BMP280;71113;43.092;-89.268;2024-03-02T13:27:08;98248.19;;;17.82
78369;BMP280;71113;43.092;-89.268;2024-03-02T13:29:34;98250.53;;;17.83
78369;BMP280;71113;43.092;-89.268;2024-03-02T13:32:00;98250.53;;;17.83
78369;BMP280;71113;43.092;-89.268;2024-03-02T13:34:26;98246.50;;;17.86
78369;BMP280;71113;43.092;-89.268;2024-03-02T13:36:52;98258.00;;;17.99
78369;BMP280;71113;43.092;-89.268;2024-03-02T13:39:19;98258.47;;;18.09
78369;BMP280;71113;43.092;-89.268;2024-03-02T13:41:45;98252.06;;;18.19
78369;BMP280;71113;43.092;-89.268;2024-03-02T13:44:21;98248.06;;;18.13
78369;BMP280;71113;43.092;-89.268;2024-03-02T13:46:47;98248.66;;;18.10
78369;BMP280;71113;43.092;-89.268;2024-03-02T13:49:14;98255.66;;;18.14
78369;BMP280;71113;43.092;-89.268;2024-03-02T13:51:40;98250.06;;;18.16
78369;BMP280;71113;43.092;-89.268;2024-03-02T13:54:06;98252.06;;;18.19
78369;BMP280;71113;43.092;-89.268;2024-03-02T13:56:31;98247.72;;;18.23